sensor_id;sensor_type;location;lat;lon;timestamp;pressure;altitude;pressure_sealevel;temperature;humidity
54816;BME280;40715;55.752;37.884;2023-07-20T00:00:52;97610.03;;;31.98;29.56
54816;BME280;40715;55.752;37.884;2023-07-20T00:03:20;97616.56;;;31.97;29.90
54816;BME280;40715;55.752;37.884;2023-07-20T00:05:52;97614.88;;;31.96;29.61
54816;BME280;40715;55.752;37.884;2023-07-20T00:08:19;97626.16;;;31.99;29.93
54816;BME280;40715;55.752;37.884;2023-07-20T00:10:46;97621.16;;;31.96;29.68
54816;BME280;40715;55.752;37.884;2023-07-20T00:13:13;97616.16;;;31.93;29.95
54816;BME280;40715;55.752;37.884;2023-07-20T00:15:42;97618.44;;;31.96;29.67
54816;BME280;40715;55.752;37.884;2023-07-20T00:18:09;97620.34;;;31.96;29.64
54816;BME280;40715;55.752;37.884;2023-07-20T00:20:36;97627.22;;;31.98;29.79
54816;BME280;40715;55.752;37.884;2023-07-20T00:23:03;97630.78;;;31.99;29.49
54816;BME280;40715;55.752;37.884;2023-07-20T00:25:30;97629.72;;;32.00;29.62
54816;BME280;40715;55.752;37.884;2023-07-20T00:27:57;97624.28;;;32.00;29.66
54816;BME280;40715;55.752;37.884;2023-07-20T00:30:24;97633.72;;;31.97;29.97
54816;BME280;40715;55.752;37.884;2023-07-20T00:32:51;97633.72;;;31.97;29.98
54816;BME280;40715;55.752;37.884;2023-07-20T00:35:18;97637.28;;;31.98;29.64
54816;BME280;40715;55.752;37.884;2023-07-20T00:37:45;97632.69;;;31.98;29.69
54816;BME280;40715;55.752;37.884;2023-07-20T00:40:12;97644.41;;;31.99;29.57
54816;BME280;40715;55.752;37.884;2023-07-20T00:42:39;97638.13;;;31.98;29.53
54816;BME280;40715;55.752;37.884;2023-07-20T00:45:07;97630.19;;;31.97;29.97
54816;BME280;40715;55.752;37.884;2023-07-20T00:47:34;97648.16;;;31.98;29.67
54816;BME280;40715;55.752;37.884;2023-07-20T00:50:04;97644.22;;;31.94;29.58
54816;BME280;40715;55.752;37.884;2023-07-20T00:52:32;97640.44;;;31.95;29.74
54816;BME280;40715;55.752;37.884;2023-07-20T00:55:00;97642.94;;;31.96;29.83
54816;BME280;40715;55.752;37.884;2023-07-20T00:57:30;97647.34;;;31.97;29.69
54816;BME280;40715;55.752;37.884;2023-07-20T00:59:58;97640.44;;;31.95;29.51
54816;BME280;40715;55.752;37.884;2023-07-20T01:02:25;97648.59;;;31.95;29.93
54816;BME280;40715;55.752;37.884;2023-07-20T01:04:52;97644.84;;;31.96;29.96
54816;BME280;40715;55.752;37.884;2023-07-20T01:07:42;97647.13;;;31.99;29.97
54816;BME280;40715;55.752;37.884;2023-07-20T01:12:52;97655.97;;;31.94;29.91
54816;BME280;40715;55.752;37.884;2023-07-20T01:15:19;97653.00;;;31.96;29.77
54816;BME280;40715;55.752;37.884;2023-07-20T01:17:47;97655.97;;;31.94;30.00
54816;BME280;40715;55.752;37.884;2023-07-20T01:20:15;97661.63;;;31.93;29.62
54816;BME280;40715;55.752;37.884;2023-07-20T01:23:13;97650.28;;;31.96;29.51
54816;BME280;40715;55.752;37.884;2023-07-20T01:26:25;97650.84;;;32.05;29.39
54816;BME280;40715;55.752;37.884;2023-07-20T01:31:44;97659.94;;;31.92;29.91
54816;BME280;40715;55.752;37.884;2023-07-20T01:34:12;97663.72;;;31.91;29.62
54816;BME280;40715;55.752;37.884;2023-07-20T01:36:43;97659.13;;;31.91;29.83
54816;BME280;40715;55.752;37.884;2023-07-20T01:39:11;97659.13;;;31.91;29.55
54816;BME280;40715;55.752;37.884;2023-07-20T01:41:39;97655.78;;;31.89;29.86
54816;BME280;40715;55.752;37.884;2023-07-20T01:44:07;97661.41;;;31.94;29.67
54816;BME280;40715;55.752;37.884;2023-07-20T01:46:34;97653.91;;;31.90;29.89
54816;BME280;40715;55.752;37.884;2023-07-20T01:49:02;97657.22;;;31.92;29.43
54816;BME280;40715;55.752;37.884;2023-07-20T01:51:29;97648.84;;;31.93;29.69
54816;BME280;40715;55.752;37.884;2023-07-20T01:53:56;97649.66;;;31.94;29.61
54816;BME280;40715;55.752;37.884;2023-07-20T01:56:23;97648.00;;;31.93;29.43
54816;BME280;40715;55.752;37.884;2023-07-20T01:58:50;97646.09;;;31.93;29.71
54816;BME280;40715;55.752;37.884;2023-07-20T02:01:17;97654.28;;;31.93;29.95
54816;BME280;40715;55.752;37.884;2023-07-20T02:03:44;97655.97;;;31.94;29.35
54816;BME280;40715;55.752;37.884;2023-07-20T02:06:11;97651.34;;;31.95;29.47
54816;BME280;40715;55.752;37.884;2023-07-20T02:08:39;97654.91;;;31.95;29.47
54816;BME280;40715;55.752;37.884;2023-07-20T02:11:06;97647.38;;;31.91;29.48
54816;BME280;40715;55.752;37.884;2023-07-20T02:13:33;97650.28;;;31.96;29.91
54816;BME280;40715;55.752;37.884;2023-07-20T02:16:00;97638.38;;;31.90;29.50
54816;BME280;40715;55.752;37.884;2023-07-20T02:18:27;97647.78;;;31.94;29.77
54816;BME280;40715;55.752;37.884;2023-07-20T02:20:55;97647.34;;;31.97;29.41
54816;BME280;40715;55.752;37.884;2023-07-20T02:23:22;97645.44;;;31.98;29.70
54816;BME280;40715;55.752;37.884;2023-07-20T02:25:49;97650.66;;;31.99;29.72
54816;BME280;40715;55.752;37.884;2023-07-20T02:28:16;97651.53;;;32.00;29.39
54816;BME280;40715;55.752;37.884;2023-07-20T02:30:43;97659.69;;;32.00;29.63
54816;BME280;40715;55.752;37.884;2023-07-20T02:33:10;97657.78;;;32.00;29.66
54816;BME280;40715;55.752;37.884;2023-07-20T02:35:37;97660.28;;;32.02;29.30
54816;BME280;40715;55.752;37.884;2023-07-20T02:38:04;97654.25;;;32.00;29.73
54816;BME280;40715;55.752;37.884;2023-07-20T02:40:31;97653.81;;;32.03;29.65
54816;BME280;40715;55.752;37.884;2023-07-20T02:42:58;97659.84;;;32.05;29.63
54816;BME280;40715;55.752;37.884;2023-07-20T02:45:25;97656.91;;;32.07;29.40
54816;BME280;40715;55.752;37.884;2023-07-20T02:47:52;97663.19;;;32.07;29.60
54816;BME280;40715;55.752;37.884;2023-07-20T02:50:19;97666.53;;;32.09;29.31
54816;BME280;40715;55.752;37.884;2023-07-20T02:52:46;97673.88;;;32.09;29.23
54816;BME280;40715;55.752;37.884;2023-07-20T02:55:13;97669.88;;;32.11;29.60
54816;BME280;40715;55.752;37.884;2023-07-20T02:57:40;97673.44;;;32.12;29.40
54816;BME280;40715;55.752;37.884;2023-07-20T03:00:08;97676.16;;;32.12;29.17
54816;BME280;40715;55.752;37.884;2023-07-20T03:02:35;97680.59;;;32.13;29.17
54816;BME280;40715;55.752;37.884;2023-07-20T03:05:02;97679.09;;;32.10;29.36
54816;BME280;40715;55.752;37.884;2023-07-20T03:07:32;97674.00;;;32.21;29.36
54816;BME280;40715;55.752;37.884;2023-07-20T03:09:59;97690.78;;;32.24;29.21
54816;BME280;40715;55.752;37.884;2023-07-20T03:12:26;97684.25;;;32.25;29.19
54816;BME280;40715;55.752;37.884;2023-07-20T03:14:54;97686.53;;;32.28;29.21
54816;BME280;40715;55.752;37.884;2023-07-20T03:17:23;97687.16;;;32.30;29.38
54816;BME280;40715;55.752;37.884;2023-07-20T03:19:50;97685.06;;;32.32;29.14
54816;BME280;40715;55.752;37.884;2023-07-20T03:22:17;97692.78;;;32.35;29.17
54816;BME280;40715;55.752;37.884;2023-07-20T03:24:45;97689.81;;;32.37;28.92
54816;BME280;40715;55.752;37.884;2023-07-20T03:27:12;97692.09;;;32.40;29.30
54816;BME280;40715;55.752;37.884;2023-07-20T03:29:39;97694.81;;;32.40;29.36
54816;BME280;40715;55.752;37.884;2023-07-20T03:32:06;97695.44;;;32.42;28.80
54816;BME280;40715;55.752;37.884;2023-07-20T03:34:33;97692.28;;;32.45;29.27
54816;BME280;40715;55.752;37.884;2023-07-20T03:37:00;97690.38;;;32.46;28.88
54816;BME280;40715;55.752;37.884;2023-07-20T03:39:28;97706.91;;;32.51;29.01
54816;BME280;40715;55.752;37.884;2023-07-20T03:41:55;97702.06;;;32.53;29.13
54816;BME280;40715;55.752;37.884;2023-07-20T03:44:21;97693.88;;;32.53;28.92
54816;BME280;40715;55.752;37.884;2023-07-20T03:46:48;97694.66;;;32.60;28.91
54816;BME280;40715;55.752;37.884;2023-07-20T03:49:16;97705.34;;;32.62;28.74
54816;BME280;40715;55.752;37.884;2023-07-20T03:51:43;97711.19;;;32.65;29.08
54816;BME280;40715;55.752;37.884;2023-07-20T03:54:09;97715.38;;;32.68;28.57
54816;BME280;40715;55.752;37.884;2023-07-20T03:56:37;97717.44;;;32.73;28.64
54816;BME280;40715;55.752;37.884;2023-07-20T03:59:04;97707.81;;;32.70;28.69
54816;BME280;40715;55.752;37.884;2023-07-20T04:01:31;97719.03;;;32.80;28.76
54816;BME280;40715;55.752;37.884;2023-07-20T04:04:07;97709.81;;;32.81;28.56
54816;BME280;40715;55.752;37.884;2023-07-20T04:06:35;97720.88;;;32.86;28.63
54816;BME280;40715;55.752;37.884;2023-07-20T04:09:03;97691.53;;;32.82;28.38
54816;BME280;40715;55.752;37.884;2023-07-20T04:11:31;97715.34;;;32.93;28.61
54816;BME280;40715;55.752;37.884;2023-07-20T04:13:58;97711.13;;;32.97;28.66
54816;BME280;40715;55.752;37.884;2023-07-20T04:16:28;97702.25;;;33.02;28.31
54816;BME280;40715;55.752;37.884;2023-07-20T04:18:56;97710.84;;;33.06;28.46
54816;BME280;40715;55.752;37.884;2023-07-20T04:21:25;97688.19;;;33.05;28.38
54816;BME280;40715;55.752;37.884;2023-07-20T04:23:52;97702.13;;;33.15;28.38
54816;BME280;40715;55.752;37.884;2023-07-20T04:26:19;97698.19;;;33.11;28.10
54816;BME280;40715;55.752;37.884;2023-07-20T04:28:47;97712.56;;;33.18;28.14
54816;BME280;40715;55.752;37.884;2023-07-20T04:31:15;97707.72;;;33.20;28.30
54816;BME280;40715;55.752;37.884;2023-07-20T04:33:43;97705.63;;;33.23;27.88
54816;BME280;40715;55.752;37.884;2023-07-20T04:36:10;97712.31;;;33.27;28.10
54816;BME280;40715;55.752;37.884;2023-07-20T04:38:37;97709.34;;;33.28;27.79
54816;BME280;40715;55.752;37.884;2023-07-20T04:41:05;97718.38;;;33.29;28.19
54816;BME280;40715;55.752;37.884;2023-07-20T04:43:32;97719.19;;;33.29;28.04
54816;BME280;40715;55.752;37.884;2023-07-20T04:45:59;97722.53;;;33.31;28.11
54816;BME280;40715;55.752;37.884;2023-07-20T04:48:26;97725.28;;;33.31;27.71
54816;BME280;40715;55.752;37.884;2023-07-20T04:50:53;97725.84;;;33.33;27.85
54816;BME280;40715;55.752;37.884;2023-07-20T04:53:22;97717.25;;;33.36;28.15
54816;BME280;40715;55.752;37.884;2023-07-20T04:55:50;97722.47;;;33.38;27.69
54816;BME280;40715;55.752;37.884;2023-07-20T04:58:19;97720.03;;;33.30;27.84
54816;BME280;40715;55.752;37.884;2023-07-20T05:00:48;97725.03;;;33.33;27.71
54816;BME280;40715;55.752;37.884;2023-07-20T05:03:16;97728.91;;;33.44;27.75
54816;BME280;40715;55.752;37.884;2023-07-20T05:05:43;97723.59;;;33.49;27.47
54816;BME280;40715;55.752;37.884;2023-07-20T05:08:12;97731.88;;;33.61;27.68
54816;BME280;40715;55.752;37.884;2023-07-20T05:10:39;97732.59;;;33.68;27.61
54816;BME280;40715;55.752;37.884;2023-07-20T05:13:06;97728.56;;;33.70;27.63
54816;BME280;40715;55.752;37.884;2023-07-20T05:15:33;97731.88;;;33.79;27.42
54816;BME280;40715;55.752;37.884;2023-07-20T05:18:01;97734.03;;;33.89;27.03
54816;BME280;40715;55.752;37.884;2023-07-20T05:20:28;97734.75;;;33.96;26.93
54816;BME280;40715;55.752;37.884;2023-07-20T05:22:55;97726.94;;;34.00;26.96
54816;BME280;40715;55.752;37.884;2023-07-20T05:25:22;97742.41;;;34.06;27.07
54816;BME280;40715;55.752;37.884;2023-07-20T05:27:49;97728.88;;;34.11;26.81
54816;BME280;40715;55.752;37.884;2023-07-20T05:30:17;97742.22;;;34.19;26.97
54816;BME280;40715;55.752;37.884;2023-07-20T05:32:44;97741.75;;;34.22;26.94
54816;BME280;40715;55.752;37.884;2023-07-20T05:35:18;97735.59;;;34.27;26.70
54816;BME280;40715;55.752;37.884;2023-07-20T05:37:45;97732.41;;;34.30;26.65
54816;BME280;40715;55.752;37.884;2023-07-20T05:40:14;97730.88;;;34.34;26.74
54816;BME280;40715;55.752;37.884;2023-07-20T05:42:45;97744.69;;;34.39;26.67
54816;BME280;40715;55.752;37.884;2023-07-20T05:45:15;97732.22;;;34.44;26.61
54816;BME280;40715;55.752;37.884;2023-07-20T05:47:42;97740.28;;;34.50;26.65
54816;BME280;40715;55.752;37.884;2023-07-20T05:50:10;97730.44;;;34.49;26.57
54816;BME280;40715;55.752;37.884;2023-07-20T05:52:37;97748.25;;;34.52;26.55
54816;BME280;40715;55.752;37.884;2023-07-20T05:55:06;97728.44;;;34.56;26.43
54816;BME280;40715;55.752;37.884;2023-07-20T05:57:34;97732.13;;;34.62;26.40
54816;BME280;40715;55.752;37.884;2023-07-20T06:00:02;97728.91;;;34.65;26.47
54816;BME280;40715;55.752;37.884;2023-07-20T06:02:31;97736.16;;;34.71;26.10
54816;BME280;40715;55.752;37.884;2023-07-20T06:05:00;97732.13;;;34.74;26.30
54816;BME280;40715;55.752;37.884;2023-07-20T06:07:28;97732.31;;;34.79;26.01
54816;BME280;40715;55.752;37.884;2023-07-20T06:09:55;97733.50;;;34.83;26.12
54816;BME280;40715;55.752;37.884;2023-07-20T06:12:22;97739.31;;;34.87;26.03
54816;BME280;40715;55.752;37.884;2023-07-20T06:14:49;97733.13;;;34.91;26.01
54816;BME280;40715;55.752;37.884;2023-07-20T06:17:17;97738.72;;;34.97;25.90
54816;BME280;40715;55.752;37.884;2023-07-20T06:19:44;97739.41;;;35.04;25.81
54816;BME280;40715;55.752;37.884;2023-07-20T06:22:11;97744.16;;;35.08;25.79
54816;BME280;40715;55.752;37.884;2023-07-20T06:24:38;97747.84;;;35.14;25.82
54816;BME280;40715;55.752;37.884;2023-07-20T06:27:05;97743.56;;;35.18;25.69
54816;BME280;40715;55.752;37.884;2023-07-20T06:29:32;97745.81;;;35.21;25.41
54816;BME280;40715;55.752;37.884;2023-07-20T06:31:59;97745.13;;;35.26;25.65
54816;BME280;40715;55.752;37.884;2023-07-20T06:34:26;97750.97;;;35.30;25.34
54816;BME280;40715;55.752;37.884;2023-07-20T06:36:53;97745.63;;;35.35;25.45
54816;BME280;40715;55.752;37.884;2023-07-20T06:39:20;97758.22;;;35.36;25.41
54816;BME280;40715;55.752;37.884;2023-07-20T06:41:52;97744.66;;;35.41;25.31
54816;BME280;40715;55.752;37.884;2023-07-20T06:44:21;97744.66;;;35.41;25.46
54816;BME280;40715;55.752;37.884;2023-07-20T06:46:49;97749.75;;;35.49;25.22
54816;BME280;40715;55.752;37.884;2023-07-20T06:49:27;97753.94;;;35.52;25.10
54816;BME280;40715;55.752;37.884;2023-07-20T06:51:54;97746.03;;;35.55;25.23
54816;BME280;40715;55.752;37.884;2023-07-20T06:54:21;97753.44;;;35.55;25.17
54816;BME280;40715;55.752;37.884;2023-07-20T06:56:50;97757.59;;;35.57;25.01
54816;BME280;40715;55.752;37.884;2023-07-20T06:59:37;97758.06;;;35.66;25.10
54816;BME280;40715;55.752;37.884;2023-07-20T07:02:07;97738.63;;;35.68;24.87
54816;BME280;40715;55.752;37.884;2023-07-20T07:04:39;97757.19;;;35.77;24.72
54816;BME280;40715;55.752;37.884;2023-07-20T07:07:07;97754.06;;;35.86;24.68
54816;BME280;40715;55.752;37.884;2023-07-20T07:09:34;97762.66;;;35.89;24.54
54816;BME280;40715;55.752;37.884;2023-07-20T07:12:00;97752.50;;;35.90;24.58
54816;BME280;40715;55.752;37.884;2023-07-20T07:14:29;97760.84;;;35.95;24.34
54816;BME280;40715;55.752;37.884;2023-07-20T07:16:56;97756.78;;;35.98;24.39
54816;BME280;40715;55.752;37.884;2023-07-20T07:19:24;97757.34;;;36.00;24.63
54816;BME280;40715;55.752;37.884;2023-07-20T07:21:51;97754.81;;;36.10;24.45
54816;BME280;40715;55.752;37.884;2023-07-20T07:24:18;97763.25;;;36.20;24.03
54816;BME280;40715;55.752;37.884;2023-07-20T07:26:45;97767.13;;;36.07;24.46
54816;BME280;40715;55.752;37.884;2023-07-20T07:29:12;97770.94;;;36.06;24.52
54816;BME280;40715;55.752;37.884;2023-07-20T07:31:40;97759.03;;;36.01;24.46
54816;BME280;40715;55.752;37.884;2023-07-20T07:34:07;97762.72;;;36.06;24.44
54816;BME280;40715;55.752;37.884;2023-07-20T07:36:34;97776.78;;;36.27;24.15
54816;BME280;40715;55.752;37.884;2023-07-20T07:39:01;97765.22;;;36.54;23.63
54816;BME280;40715;55.752;37.884;2023-07-20T07:41:48;97777.19;;;37.33;23.52
54816;BME280;40715;55.752;37.884;2023-07-20T07:44:15;97759.75;;;37.05;22.84
54816;BME280;40715;55.752;37.884;2023-07-20T07:46:42;97764.84;;;36.96;23.53
54816;BME280;40715;55.752;37.884;2023-07-20T07:49:09;97774.81;;;37.02;22.96
54816;BME280;40715;55.752;37.884;2023-07-20T07:51:36;97765.34;;;37.10;23.32
54816;BME280;40715;55.752;37.884;2023-07-20T07:54:04;97772.38;;;37.23;23.08
54816;BME280;40715;55.752;37.884;2023-07-20T07:56:31;97766.28;;;37.38;22.48
54816;BME280;40715;55.752;37.884;2023-07-20T07:58:58;97765.72;;;37.58;22.67
54816;BME280;40715;55.752;37.884;2023-07-20T08:01:25;97772.44;;;37.45;22.62
54816;BME280;40715;55.752;37.884;2023-07-20T08:03:55;97770.06;;;37.54;22.46
54816;BME280;40715;55.752;37.884;2023-07-20T08:06:22;97770.75;;;37.83;22.54
54816;BME280;40715;55.752;37.884;2023-07-20T08:08:51;97759.97;;;38.04;22.04
54816;BME280;40715;55.752;37.884;2023-07-20T08:11:18;97765.91;;;37.95;22.19
54816;BME280;40715;55.752;37.884;2023-07-20T08:13:45;97773.53;;;38.10;22.22
54816;BME280;40715;55.752;37.884;2023-07-20T08:16:11;97778.50;;;38.13;21.58
54816;BME280;40715;55.752;37.884;2023-07-20T08:18:38;97777.28;;;38.26;21.94
54816;BME280;40715;55.752;37.884;2023-07-20T08:21:06;97774.25;;;38.23;21.97
54816;BME280;40715;55.752;37.884;2023-07-20T08:23:33;97768.88;;;38.38;21.37
54816;BME280;40715;55.752;37.884;2023-07-20T08:26:00;97771.28;;;38.62;21.51
54816;BME280;40715;55.752;37.884;2023-07-20T08:28:28;97775.63;;;38.80;21.29
54816;BME280;40715;55.752;37.884;2023-07-20T08:30:56;97788.72;;;38.40;21.34
54816;BME280;40715;55.752;37.884;2023-07-20T08:33:25;97778.56;;;37.91;21.92
54816;BME280;40715;55.752;37.884;2023-07-20T08:35:56;97781.66;;;37.56;22.59
54816;BME280;40715;55.752;37.884;2023-07-20T08:38:23;97775.94;;;37.23;23.08
54816;BME280;40715;55.752;37.884;2023-07-20T08:40:51;97774.44;;;37.33;22.97
54816;BME280;40715;55.752;37.884;2023-07-20T08:43:22;97772.72;;;37.26;22.75
54816;BME280;40715;55.752;37.884;2023-07-20T08:45:52;97780.38;;;37.41;22.71
54816;BME280;40715;55.752;37.884;2023-07-20T08:48:20;97770.53;;;37.68;22.04
54816;BME280;40715;55.752;37.884;2023-07-20T08:50:52;97780.88;;;38.05;22.10
54816;BME280;40715;55.752;37.884;2023-07-20T08:53:20;97776.38;;;38.43;21.47
54816;BME280;40715;55.752;37.884;2023-07-20T08:55:50;97777.81;;;38.23;21.62
54816;BME280;40715;55.752;37.884;2023-07-20T08:58:18;97768.28;;;38.09;22.03
54816;BME280;40715;55.752;37.884;2023-07-20T09:00:46;97768.53;;;37.80;21.83
54816;BME280;40715;55.752;37.884;2023-07-20T09:03:14;97771.00;;;37.81;22.30
54816;BME280;40715;55.752;37.884;2023-07-20T09:05:41;97764.25;;;37.72;22.40
54816;BME280;40715;55.752;37.884;2023-07-20T09:08:08;97776.78;;;37.24;22.80
54816;BME280;40715;55.752;37.884;2023-07-20T09:10:35;97782.38;;;36.78;23.28
54816;BME280;40715;55.752;37.884;2023-07-20T09:13:02;97779.25;;;36.40;23.33
54816;BME280;40715;55.752;37.884;2023-07-20T09:15:30;97779.22;;;36.11;24.19
54816;BME280;40715;55.752;37.884;2023-07-20T09:18:01;97787.56;;;35.88;24.28
54816;BME280;40715;55.752;37.884;2023-07-20T09:20:32;97796.75;;;35.82;24.31
54816;BME280;40715;55.752;37.884;2023-07-20T09:23:04;97792.66;;;35.84;24.29
54816;BME280;40715;55.752;37.884;2023-07-20T09:25:31;97796.97;;;35.80;24.17
54816;BME280;40715;55.752;37.884;2023-07-20T09:28:02;97795.19;;;35.74;24.71
54816;BME280;40715;55.752;37.884;2023-07-20T09:30:31;97791.38;;;35.87;24.43
54816;BME280;40715;55.752;37.884;2023-07-20T09:33:00;97799.31;;;36.00;24.26
54816;BME280;40715;55.752;37.884;2023-07-20T09:35:27;97799.66;;;36.33;23.78
54816;BME280;40715;55.752;37.884;2023-07-20T09:38:07;97796.97;;;36.67;23.31
54816;BME280;40715;55.752;37.884;2023-07-20T09:40:38;97799.16;;;36.65;23.31
54816;BME280;40715;55.752;37.884;2023-07-20T09:43:09;97798.63;;;36.51;23.59
54816;BME280;40715;55.752;37.884;2023-07-20T09:45:40;97783.59;;;36.24;23.56
54816;BME280;40715;55.752;37.884;2023-07-20T09:48:14;97785.94;;;36.04;24.21
54816;BME280;40715;55.752;37.884;2023-07-20T09:50:49;97795.91;;;35.81;24.28
54816;BME280;40715;55.752;37.884;2023-07-20T09:53:18;97788.19;;;35.66;24.48
54816;BME280;40715;55.752;37.884;2023-07-20T09:55:47;97799.38;;;35.65;24.27
54816;BME280;40715;55.752;37.884;2023-07-20T09:58:15;97803.78;;;35.54;24.43
54816;BME280;40715;55.752;37.884;2023-07-20T10:00:44;97828.56;;;35.47;24.80
54816;BME280;40715;55.752;37.884;2023-07-20T10:03:21;97814.88;;;35.35;24.90
54816;BME280;40715;55.752;37.884;2023-07-20T10:05:57;97814.97;;;35.29;24.83
54816;BME280;40715;55.752;37.884;2023-07-20T10:08:25;97829.63;;;35.22;25.01
54816;BME280;40715;55.752;37.884;2023-07-20T10:10:57;97829.13;;;35.14;25.09
54816;BME280;40715;55.752;37.884;2023-07-20T10:13:29;97857.47;;;35.07;24.98
54816;BME280;40715;55.752;37.884;2023-07-20T10:16:28;97844.84;;;35.18;25.01
54816;BME280;40715;55.752;37.884;2023-07-20T10:19:05;97853.75;;;35.02;25.31
54816;BME280;40715;55.752;37.884;2023-07-20T10:21:42;97853.63;;;34.97;25.29
54816;BME280;40715;55.752;37.884;2023-07-20T10:24:17;97854.09;;;34.94;25.33
54816;BME280;40715;55.752;37.884;2023-07-20T10:26:45;97847.19;;;34.91;25.62
54816;BME280;40715;55.752;37.884;2023-07-20T10:29:12;97838.78;;;34.74;25.33
54816;BME280;40715;55.752;37.884;2023-07-20T10:31:40;97840.41;;;34.63;25.81
54816;BME280;40715;55.752;37.884;2023-07-20T10:34:08;97838.16;;;34.60;25.74
54816;BME280;40715;55.752;37.884;2023-07-20T10:36:44;97837.56;;;34.58;25.80
54816;BME280;40715;55.752;37.884;2023-07-20T10:39:25;97823.19;;;34.63;25.87
54816;BME280;40715;55.752;37.884;2023-07-20T10:42:07;97819.63;;;34.62;25.86
54816;BME280;40715;55.752;37.884;2023-07-20T10:44:37;97824.13;;;34.56;25.77
54816;BME280;40715;55.752;37.884;2023-07-20T10:47:12;97829.38;;;34.58;25.97
54816;BME280;40715;55.752;37.884;2023-07-20T10:49:59;97821.50;;;34.62;25.92
54816;BME280;40715;55.752;37.884;2023-07-20T10:52:41;97827.09;;;34.55;25.94
54816;BME280;40715;55.752;37.884;2023-07-20T10:55:15;97827.09;;;34.55;26.02
54816;BME280;40715;55.752;37.884;2023-07-20T10:57:43;97829.94;;;34.48;25.94
54816;BME280;40715;55.752;37.884;2023-07-20T11:00:14;97831.22;;;34.46;26.04
54816;BME280;40715;55.752;37.884;2023-07-20T11:02:49;97826.63;;;34.58;25.93
54816;BME280;40715;55.752;37.884;2023-07-20T11:05:50;97817.91;;;34.80;25.87
54816;BME280;40715;55.752;37.884;2023-07-20T11:08:37;97808.75;;;34.86;25.54
54816;BME280;40715;55.752;37.884;2023-07-20T11:11:27;97804.88;;;34.63;25.97
54816;BME280;40715;55.752;37.884;2023-07-20T11:14:01;97806.06;;;34.67;25.82
54816;BME280;40715;55.752;37.884;2023-07-20T11:16:43;97811.06;;;34.70;25.76
54816;BME280;40715;55.752;37.884;2023-07-20T11:19:17;97811.72;;;34.42;26.29
54816;BME280;40715;55.752;37.884;2023-07-20T11:21:50;97810.38;;;34.33;26.36
54816;BME280;40715;55.752;37.884;2023-07-20T11:24:27;97816.31;;;34.30;26.48
54816;BME280;40715;55.752;37.884;2023-07-20T11:26:54;97814.84;;;34.27;26.41
54816;BME280;40715;55.752;37.884;2023-07-20T11:29:22;97810.56;;;34.19;26.53
54816;BME280;40715;55.752;37.884;2023-07-20T11:31:57;97817.66;;;34.20;26.36
54816;BME280;40715;55.752;37.884;2023-07-20T11:34:30;97822.84;;;34.29;25.99
54816;BME280;40715;55.752;37.884;2023-07-20T11:36:57;97842.63;;;34.43;26.17
54816;BME280;40715;55.752;37.884;2023-07-20T11:39:28;97852.75;;;34.42;26.14
54816;BME280;40715;55.752;37.884;2023-07-20T11:41:56;97870.19;;;34.41;26.22
54816;BME280;40715;55.752;37.884;2023-07-20T11:44:26;97860.56;;;34.38;26.31
54816;BME280;40715;55.752;37.884;2023-07-20T11:47:23;97872.75;;;34.54;26.20
54816;BME280;40715;55.752;37.884;2023-07-20T11:50:03;97868.28;;;34.42;26.30
54816;BME280;40715;55.752;37.884;2023-07-20T11:52:31;97870.66;;;34.38;26.11
54816;BME280;40715;55.752;37.884;2023-07-20T11:54:58;97869.22;;;34.35;26.29
54816;BME280;40715;55.752;37.884;2023-07-20T11:57:26;97847.13;;;34.37;26.31
54816;BME280;40715;55.752;37.884;2023-07-20T11:59:57;97847.34;;;34.35;26.43
54816;BME280;40715;55.752;37.884;2023-07-20T12:02:28;97845.22;;;34.37;26.42
54816;BME280;40715;55.752;37.884;2023-07-20T12:04:56;97845.81;;;34.39;26.22
54816;BME280;40715;55.752;37.884;2023-07-20T12:07:28;97836.56;;;34.40;26.31
54816;BME280;40715;55.752;37.884;2023-07-20T12:10:09;97834.56;;;34.48;26.32
54816;BME280;40715;55.752;37.884;2023-07-20T12:12:40;97838.22;;;34.42;26.34
54816;BME280;40715;55.752;37.884;2023-07-20T12:17:45;97842.16;;;34.46;26.27
54816;BME280;40715;55.752;37.884;2023-07-20T12:20:28;97840.72;;;34.43;26.23
54816;BME280;40715;55.752;37.884;2023-07-20T12:22:59;97840.59;;;34.38;26.43
54816;BME280;40715;55.752;37.884;2023-07-20T12:25:40;97844.16;;;34.38;26.21
54816;BME280;40715;55.752;37.884;2023-07-20T12:28:12;97852.19;;;34.33;26.52
54816;BME280;40715;55.752;37.884;2023-07-20T12:30:44;97854.94;;;34.33;26.45
54816;BME280;40715;55.752;37.884;2023-07-20T12:33:13;97852.44;;;34.32;26.45
54816;BME280;40715;55.752;37.884;2023-07-20T12:35:43;97854.13;;;34.33;26.58
54816;BME280;40715;55.752;37.884;2023-07-20T12:38:10;97856.03;;;34.32;26.62
54816;BME280;40715;55.752;37.884;2023-07-20T12:40:38;97841.50;;;34.32;26.71
54816;BME280;40715;55.752;37.884;2023-07-20T12:43:05;97845.91;;;34.33;26.62
54816;BME280;40715;55.752;37.884;2023-07-20T12:45:33;97834.38;;;34.31;26.64
54816;BME280;40715;55.752;37.884;2023-07-20T12:48:00;97840.91;;;34.30;26.57
54816;BME280;40715;55.752;37.884;2023-07-20T12:50:27;97840.91;;;34.30;26.58
54816;BME280;40715;55.752;37.884;2023-07-20T12:52:54;97834.63;;;34.29;26.73
54816;BME280;40715;55.752;37.884;2023-07-20T12:55:21;97846.63;;;34.28;26.71
54816;BME280;40715;55.752;37.884;2023-07-20T12:57:49;97845.56;;;34.29;26.64
54816;BME280;40715;55.752;37.884;2023-07-20T13:00:16;97848.53;;;34.28;26.92
54816;BME280;40715;55.752;37.884;2023-07-20T13:02:43;97853.75;;;34.29;26.59
54816;BME280;40715;55.752;37.884;2023-07-20T13:05:10;97845.56;;;34.29;26.40
54816;BME280;40715;55.752;37.884;2023-07-20T13:07:38;97847.63;;;34.27;26.69
54816;BME280;40715;55.752;37.884;2023-07-20T13:10:10;97840.50;;;34.26;26.82